Time,TemperatureF,DewpointF,PressureIn,WindDirection,WindDirectionDegrees,WindSpeedMPH,WindSpeedGustMPH,Humidity,HourlyPrecipIn,Conditions,Clouds,dailyrainin,SolarRadiationWatts/m^2,SoftwareType,DateUTC
2013-02-12 00:12:00,57.0,57.0,-100.00,NE,52,2.0,9.0,100,0.00,,,0.35,0.000000,,2013-02-12 06:12:00,
2013-02-12 00:21:00,57.0,57.0,-100.00,NE,52,2.0,9.0,100,0.00,,,0.35,0.000000,,2013-02-12 06:21:00,
2013-02-12 00:32:00,57.0,57.0,-100.00,NE,52,2.0,9.0,100,0.00,,,0.35,0.000000,,2013-02-12 06:32:00,
2013-02-12 00:42:00,57.0,57.0,-100.00,NE,52,2.0,9.0,100,0.00,,,0.35,0.000000,,2013-02-12 06:42:00,
2013-02-12 00:51:00,57.0,57.0,-100.00,NNE,33,3.0,7.0,100,0.00,,,0.35,0.000000,,2013-02-12 06:51:00,
2013-02-12 01:11:00,57.0,57.0,-100.00,NNE,33,3.0,7.0,100,0.00,,,0.35,0.000000,,2013-02-12 07:11:00,
2013-02-12 01:21:00,57.0,57.0,-100.00,NNE,33,3.0,7.0,100,0.00,,,0.35,0.000000,,2013-02-12 07:21:00,
2013-02-12 01:31:00,57.0,57.0,-100.00,NNE,33,3.0,7.0,100,0.00,,,0.35,0.000000,,2013-02-12 07:31:00,
2013-02-12 01:41:00,57.0,57.0,-100.00,NNE,33,3.0,7.0,100,0.00,,,0.35,0.000000,,2013-02-12 07:41:00,
2013-02-12 01:51:00,58.0,58.0,-100.00,NNE,29,3.0,7.0,100,0.00,,,0.35,0.000000,,2013-02-12 07:51:00,
2013-02-12 02:11:00,58.0,58.0,-100.00,NNE,29,3.0,7.0,100,0.00,,,0.35,0.000000,,2013-02-12 08:11:00,
2013-02-12 02:21:00,58.0,58.0,-100.00,NNE,29,3.0,7.0,100,0.00,,,0.35,0.000000,,2013-02-12 08:21:00,
2013-02-12 02:32:00,58.0,58.0,-100.00,NNE,29,3.0,7.0,100,0.00,,,0.35,0.000000,,2013-02-12 08:32:00,
2013-02-12 02:41:00,58.0,58.0,-100.00,NNE,29,3.0,7.0,100,0.00,,,0.35,0.000000,,2013-02-12 08:41:00,
2013-02-12 02:51:00,57.0,57.0,-100.00,NNE,23,4.0,9.0,100,0.00,,,0.35,0.000000,,2013-02-12 08:51:00,
2013-02-12 03:11:00,57.0,57.0,-100.00,NNE,23,4.0,9.0,100,0.00,,,0.35,0.000000,,2013-02-12 09:11:00,
2013-02-12 03:21:00,57.0,57.0,-100.00,NNE,23,4.0,9.0,100,0.00,,,0.35,0.000000,,2013-02-12 09:21:00,
2013-02-12 03:32:00,57.0,57.0,-100.00,NNE,23,4.0,9.0,100,0.00,,,0.35,0.000000,,2013-02-12 09:32:00,
2013-02-12 03:42:00,57.0,57.0,-100.00,NNE,23,4.0,9.0,100,0.00,,,0.35,0.000000,,2013-02-12 09:42:00,
2013-02-12 03:51:00,57.0,57.0,-100.00,NE,35,3.0,11.0,100,0.00,,,0.35,0.000000,,2013-02-12 09:51:00,
2013-02-12 04:11:00,57.0,57.0,-100.00,NE,35,3.0,11.0,100,0.00,,,0.35,0.000000,,2013-02-12 10:11:00,
2013-02-12 04:21:00,57.0,57.0,-100.00,NE,35,3.0,11.0,100,0.00,,,0.35,0.000000,,2013-02-12 10:21:00,
2013-02-12 04:32:00,57.0,57.0,-100.00,NE,35,3.0,11.0,100,0.00,,,0.35,0.000000,,2013-02-12 10:32:00,
2013-02-12 04:43:00,57.0,57.0,-100.00,NE,35,3.0,11.0,100,0.00,,,0.35,0.000000,,2013-02-12 10:43:00,
2013-02-12 04:51:00,57.0,57.0,-100.00,East,91,4.0,10.0,100,0.00,,,0.35,0.000000,,2013-02-12 10:51:00,
2013-02-12 05:11:00,57.0,57.0,-100.00,East,91,4.0,10.0,100,0.00,,,0.35,0.000000,,2013-02-12 11:11:00,
2013-02-12 05:22:00,57.0,57.0,-100.00,East,91,4.0,10.0,100,0.00,,,0.35,0.000000,,2013-02-12 11:22:00,
2013-02-12 05:32:00,57.0,57.0,-100.00,East,91,4.0,10.0,100,0.00,,,0.35,0.000000,,2013-02-12 11:32:00,
2013-02-12 05:41:00,57.0,57.0,-100.00,East,91,4.0,10.0,100,0.00,,,0.35,0.000000,,2013-02-12 11:41:00,
2013-02-12 05:51:00,57.0,57.0,-100.00,ENE,72,3.0,10.0,100,0.00,,,0.35,0.000000,,2013-02-12 11:51:00,
2013-02-12 06:11:00,57.0,57.0,-100.00,ENE,72,3.0,10.0,100,0.00,,,0.35,0.000000,,2013-02-12 12:11:00,
2013-02-12 06:21:00,57.0,57.0,-100.00,ENE,72,3.0,10.0,100,0.00,,,0.35,0.000000,,2013-02-12 12:21:00,
2013-02-12 06:32:00,57.0,57.0,-100.00,ENE,72,3.0,10.0,100,0.00,,,0.35,0.000000,,2013-02-12 12:32:00,
2013-02-12 06:42:00,57.0,57.0,-100.00,ENE,72,3.0,10.0,100,0.00,,,0.35,0.000000,,2013-02-12 12:42:00,
2013-02-12 06:51:00,57.0,57.0,-100.00,East,91,3.0,10.0,100,0.00,,,0.35,1.000000,,2013-02-12 12:51:00,
2013-02-12 07:11:00,57.0,57.0,-100.00,East,91,3.0,10.0,100,0.00,,,0.35,1.000000,,2013-02-12 13:11:00,
2013-02-12 07:22:00,57.0,57.0,-100.00,East,91,3.0,10.0,100,0.00,,,0.35,1.000000,,2013-02-12 13:22:00,
2013-02-12 07:32:00,57.0,57.0,-100.00,East,91,3.0,10.0,100,0.00,,,0.35,1.000000,,2013-02-12 13:32:00,
2013-02-12 07:42:00,57.0,57.0,-100.00,East,91,3.0,10.0,100,0.00,,,0.35,1.000000,,2013-02-12 13:42:00,
2013-02-12 07:51:00,57.0,57.0,-100.00,East,98,5.0,12.0,100,0.00,,,0.35,16.000000,,2013-02-12 13:51:00,
2013-02-12 08:12:00,57.0,57.0,-100.00,East,98,5.0,12.0,100,0.00,,,0.35,16.000000,,2013-02-12 14:12:00,
2013-02-12 08:21:00,57.0,57.0,-100.00,East,98,5.0,12.0,100,0.00,,,0.35,16.000000,,2013-02-12 14:21:00,
2013-02-12 08:32:00,57.0,57.0,-100.00,East,98,5.0,12.0,100,0.00,,,0.35,16.000000,,2013-02-12 14:32:00,
2013-02-12 08:42:00,57.0,57.0,-100.00,East,98,5.0,12.0,100,0.00,,,0.35,16.000000,,2013-02-12 14:42:00,
2013-02-12 08:51:00,58.0,58.0,-100.00,East,98,4.0,9.0,100,0.00,,,0.35,38.000000,,2013-02-12 14:51:00,
2013-02-12 09:11:00,58.0,58.0,-100.00,East,98,4.0,9.0,100,0.00,,,0.35,38.000000,,2013-02-12 15:11:00,
2013-02-12 09:21:00,58.0,58.0,-100.00,East,98,4.0,9.0,100,0.00,,,0.35,38.000000,,2013-02-12 15:21:00,
2013-02-12 09:32:00,58.0,58.0,-100.00,East,98,4.0,9.0,100,0.00,,,0.35,38.000000,,2013-02-12 15:32:00,
2013-02-12 09:42:00,58.0,58.0,-100.00,East,98,4.0,9.0,100,0.00,,,0.35,38.000000,,2013-02-12 15:42:00,
2013-02-12 09:51:00,58.0,58.0,-100.00,East,99,4.0,11.0,100,0.01,,,0.36,70.000000,,2013-02-12 15:51:00,
2013-02-12 10:22:00,58.0,58.0,-100.00,East,99,4.0,11.0,100,0.01,,,0.36,70.000000,,2013-02-12 16:22:00,
2013-02-12 10:32:00,58.0,58.0,-100.00,East,99,4.0,11.0,100,0.01,,,0.36,70.000000,,2013-02-12 16:32:00,
2013-02-12 10:41:00,58.0,58.0,-100.00,East,99,4.0,11.0,100,0.01,,,0.36,70.000000,,2013-02-12 16:41:00,
2013-02-12 10:51:00,59.0,59.0,-100.00,East,94,4.0,10.0,100,0.00,,,0.35,84.000000,,2013-02-12 16:51:00,
2013-02-12 11:12:00,59.0,59.0,-100.00,East,94,4.0,10.0,100,0.00,,,0.35,84.000000,,2013-02-12 17:12:00,
2013-02-12 11:21:00,59.0,59.0,-100.00,East,94,4.0,10.0,100,0.00,,,0.35,84.000000,,2013-02-12 17:21:00,
2013-02-12 11:32:00,59.0,59.0,-100.00,East,94,4.0,10.0,100,0.00,,,0.35,84.000000,,2013-02-12 17:32:00,
2013-02-12 11:42:00,59.0,59.0,-100.00,East,94,4.0,10.0,100,0.00,,,0.35,84.000000,,2013-02-12 17:42:00,
2013-02-12 11:51:00,60.0,60.0,-100.00,East,100,4.0,9.0,100,0.00,,,0.33,70.000000,,2013-02-12 17:51:00,
2013-02-12 12:11:00,60.0,60.0,-100.00,East,100,4.0,9.0,100,0.00,,,0.33,70.000000,,2013-02-12 18:11:00,
2013-02-12 12:23:00,60.0,60.0,-100.00,East,100,4.0,9.0,100,0.00,,,0.33,70.000000,,2013-02-12 18:23:00,
2013-02-12 12:32:00,60.0,60.0,-100.00,East,100,4.0,9.0,100,0.00,,,0.33,70.000000,,2013-02-12 18:32:00,
2013-02-12 12:41:00,60.0,60.0,-100.00,East,100,4.0,9.0,100,0.00,,,0.33,70.000000,,2013-02-12 18:41:00,
2013-02-12 12:51:00,61.0,61.0,-100.00,ESE,111,6.0,10.0,100,0.00,,,0.12,85.000000,,2013-02-12 18:51:00,
2013-02-12 13:11:00,61.0,61.0,-100.00,ESE,111,6.0,10.0,100,0.00,,,0.12,85.000000,,2013-02-12 19:11:00,
2013-02-12 13:21:00,61.0,61.0,-100.00,ESE,111,6.0,10.0,100,0.00,,,0.12,85.000000,,2013-02-12 19:21:00,
2013-02-12 13:31:00,61.0,61.0,-100.00,ESE,111,6.0,10.0,100,0.00,,,0.12,85.000000,,2013-02-12 19:31:00,
2013-02-12 13:41:00,61.0,61.0,-100.00,ESE,111,6.0,10.0,100,0.00,,,0.12,85.000000,,2013-02-12 19:41:00,
2013-02-12 13:51:00,62.0,62.0,-100.00,ESE,102,3.0,9.0,100,0.21,,,0.32,54.000000,,2013-02-12 19:51:00,
2013-02-12 14:11:00,62.0,62.0,-100.00,ESE,102,3.0,9.0,100,0.21,,,0.32,54.000000,,2013-02-12 20:11:00,
2013-02-12 14:21:00,62.0,62.0,-100.00,ESE,102,3.0,9.0,100,0.21,,,0.32,54.000000,,2013-02-12 20:21:00,
2013-02-12 14:32:00,62.0,62.0,-100.00,ESE,102,3.0,9.0,100,0.21,,,0.32,54.000000,,2013-02-12 20:32:00,
2013-02-12 14:41:00,62.0,62.0,-100.00,ESE,102,3.0,9.0,100,0.21,,,0.32,54.000000,,2013-02-12 20:41:00,
2013-02-12 14:51:00,65.0,65.0,-100.00,West,278,4.0,12.0,100,0.02,,,0.34,40.000000,,2013-02-12 20:51:00,
2013-02-12 15:21:00,65.0,65.0,-100.00,West,278,4.0,12.0,100,0.02,,,0.34,40.000000,,2013-02-12 21:21:00,
2013-02-12 15:31:00,65.0,65.0,-100.00,West,278,4.0,12.0,100,0.02,,,0.34,40.000000,,2013-02-12 21:31:00,
2013-02-12 15:42:00,65.0,65.0,-100.00,West,278,4.0,12.0,100,0.02,,,0.34,40.000000,,2013-02-12 21:42:00,
2013-02-12 15:51:00,71.0,71.0,-100.00,SSW,202,8.0,18.0,100,0.00,,,0.33,74.000000,,2013-02-12 21:51:00,
2013-02-12 16:21:00,71.0,71.0,-100.00,SSW,202,8.0,18.0,100,0.00,,,0.33,74.000000,,2013-02-12 22:21:00,
2013-02-12 16:32:00,71.0,71.0,-100.00,SSW,202,8.0,18.0,100,0.00,,,0.33,74.000000,,2013-02-12 22:32:00,
2013-02-12 16:42:00,71.0,71.0,-100.00,SSW,202,8.0,18.0,100,0.00,,,0.33,74.000000,,2013-02-12 22:42:00,
2013-02-12 16:51:00,70.0,70.0,-100.00,SSW,209,8.0,23.0,100,0.00,,,0.26,52.000000,,2013-02-12 22:51:00,
2013-02-12 17:11:00,70.0,70.0,-100.00,SSW,209,8.0,23.0,100,0.00,,,0.26,52.000000,,2013-02-12 23:11:00,
2013-02-12 17:21:00,70.0,70.0,-100.00,SSW,209,8.0,23.0,100,0.00,,,0.26,52.000000,,2013-02-12 23:21:00,
2013-02-12 17:32:00,70.0,70.0,-100.00,SSW,209,8.0,23.0,100,0.00,,,0.26,52.000000,,2013-02-12 23:32:00,
2013-02-12 17:42:00,70.0,70.0,-100.00,SSW,209,8.0,23.0,100,0.00,,,0.26,52.000000,,2013-02-12 23:42:00,
2013-02-12 17:51:00,70.0,70.0,-100.00,SSW,210,7.0,23.0,100,0.00,,,0.26,7.000000,,2013-02-12 23:51:00,
2013-02-12 18:21:00,70.0,70.0,-100.00,SSW,210,7.0,23.0,100,0.00,,,0.26,7.000000,,2013-02-13 00:21:00,
2013-02-12 18:32:00,70.0,70.0,-100.00,SSW,210,7.0,23.0,100,0.00,,,0.26,7.000000,,2013-02-13 00:32:00,
2013-02-12 18:42:00,70.0,70.0,-100.00,SSW,210,7.0,23.0,100,0.00,,,0.26,7.000000,,2013-02-13 00:42:00,
2013-02-12 18:51:00,70.0,70.0,-100.00,SW,218,6.0,17.0,100,0.00,,,0.26,0.000000,,2013-02-13 00:51:00,
2013-02-12 19:42:00,70.0,70.0,-100.00,SW,218,6.0,17.0,100,0.00,,,0.26,0.000000,,2013-02-13 01:42:00,
2013-02-12 19:51:00,70.0,70.0,-100.00,WSW,238,6.0,16.0,100,0.00,,,0.26,0.000000,,2013-02-13 01:51:00,
2013-02-12 20:22:00,70.0,70.0,-100.00,WSW,238,6.0,16.0,100,0.00,,,0.26,0.000000,,2013-02-13 02:22:00,
2013-02-12 20:31:00,70.0,70.0,-100.00,WSW,238,6.0,16.0,100,0.00,,,0.26,0.000000,,2013-02-13 02:31:00,
2013-02-12 20:41:00,70.0,70.0,-100.00,WSW,238,6.0,16.0,100,0.00,,,0.26,0.000000,,2013-02-13 02:41:00,
2013-02-12 20:51:00,69.0,69.0,-100.00,WSW,256,5.0,16.0,100,0.00,,,0.25,0.000000,,2013-02-13 02:51:00,
2013-02-12 21:11:00,69.0,69.0,-100.00,WSW,256,5.0,16.0,100,0.00,,,0.25,0.000000,,2013-02-13 03:11:00,
2013-02-12 21:21:00,69.0,69.0,-100.00,WSW,256,5.0,16.0,100,0.00,,,0.25,0.000000,,2013-02-13 03:21:00,
2013-02-12 21:32:00,69.0,69.0,-100.00,WSW,256,5.0,16.0,100,0.00,,,0.25,0.000000,,2013-02-13 03:32:00,
2013-02-12 21:41:00,69.0,69.0,-100.00,WSW,256,5.0,16.0,100,0.00,,,0.25,0.000000,,2013-02-13 03:41:00,
2013-02-12 21:51:00,69.0,69.0,-100.00,WSW,241,4.0,13.0,100,0.00,,,0.25,0.000000,,2013-02-13 03:51:00,
2013-02-12 22:11:00,69.0,69.0,-100.00,WSW,241,4.0,13.0,100,0.00,,,0.25,0.000000,,2013-02-13 04:11:00,
2013-02-12 22:21:00,69.0,69.0,-100.00,WSW,241,4.0,13.0,100,0.00,,,0.25,0.000000,,2013-02-13 04:21:00,
2013-02-12 22:32:00,69.0,69.0,-100.00,WSW,241,4.0,13.0,100,0.00,,,0.25,0.000000,,2013-02-13 04:32:00,
2013-02-12 22:41:00,69.0,69.0,-100.00,WSW,241,4.0,13.0,100,0.00,,,0.25,0.000000,,2013-02-13 04:41:00,
2013-02-12 22:51:00,69.0,69.0,-100.00,West,267,6.0,14.0,100,0.00,,,0.24,0.000000,,2013-02-13 04:51:00,
2013-02-12 23:11:00,69.0,69.0,-100.00,West,267,6.0,14.0,100,0.00,,,0.24,0.000000,,2013-02-13 05:11:00,
2013-02-12 23:22:00,69.0,69.0,-100.00,West,267,6.0,14.0,100,0.00,,,0.24,0.000000,,2013-02-13 05:22:00,
2013-02-12 23:31:00,69.0,69.0,-100.00,West,267,6.0,14.0,100,0.00,,,0.24,0.000000,,2013-02-13 05:31:00,
2013-02-12 23:42:00,69.0,69.0,-100.00,West,267,6.0,14.0,100,0.00,,,0.24,0.000000,,2013-02-13 05:42:00,
2013-02-12 23:51:00,68.0,68.0,-100.00,SW,224,3.0,13.0,100,0.00,,,0.24,0.000000,,2013-02-13 05:51:00,